Terminal Aerodrome Forecast
Issued by NWS

Home | Current Version | Previous Version | Graphics & Text | Print | Product List | Glossary On
Versions: 1 2 3 4 5 6 7 8 9 10 11 12 13 14 15 16 17 18
322
FTUS43 KABR 141120
TAFPIR
TAF
KPIR 141120Z 1412/1512 32011KT P6SM VCSH OVC030
      TEMPO 1412/1416 -SN BKN015
     FM141600 32015G24KT P6SM -RASN OVC015
     FM141800 33018G25KT P6SM OVC020
     FM142200 33019G27KT P6SM BKN045
     FM150000 32013KT P6SM BKN070=

USA.gov is the U.S. government's official web portal to all federal, state and local government web resources and services.